WHD weather

Hyder Seaplane Base
Hyder, Alaska, United States

Public forecast

Using degrees Fahrenheit for public forecast. Weather courtesy of forecast.io.

Closest aviation weather report (METAR) to Hyder Seaplane Base

Report is more than 6 hours old.

Closest report is Stewart Airport, 2.1 nm (4.0 km) NNE. Retrieved 2020/08/08 01:00 UTC (10 hours ago):

CZST 080100Z 23002KT 6SM -RA BR FEW008 SCT018 BKN035 OVC045 12/11 A2990 RMK SC2SC2SC2SC2 LAST STFD OBS/NEXT081300Z SLP125

Closest aviation forecast (TAF) to Hyder Seaplane Base

Closest forecast is Ketchikan International Airport, 66.5 nm (123.1 km) WSW. Retrieved 2020/08/08 06:36 UTC (5 hours ago):

TAF PAKT 080533Z 0806/0906 14008KT P6SM -SHRA SCT025 OVC050 FM081400 13009KT P6SM VCSH SCT010 OVC025 FM081800 12011KT 6SM -SHRA BKN025 OVC040 FM090000 13008KT P6SM VCSH SCT025 OVC040 AMD LTD TO CLD VIS AND WIND 0806/0815